Etusivu
METAR-TAF:

METAR-TAF

Lentoasemat :

Rygge, Norja

Leveyspiiri: 59-23N, Pituuspiiri: 010-47E, korkeus merenpinnasta: 5 m

Tämänhetkinen sää

Tämä raportti tehtiin 32 minuuttia sitten, kello 20.20 UTC
Tuuli 7 kn etelästä/kaakosta
Lämpötila 14°C
Kosteus 77%
Ilmanpaine 1019 hPa
Näkyvyys 10 km tai enemmän

METAR: ENRY 262020Z AUTO 16007KT 9999NDV NCD 14/10 Q1019

Aika: 22:52 (20:52 UTC)

Sääennuste

Ennuste voimassa 26. päivästä klo 18 UTC - 27. päivään klo 18 UTC
Tuuli 10 kn etelästä/lounaasta
Näkyvyys 10 km tai enemmän
ei pilviä alle 1500 m:ssä eikä cumulonimbus-pilviä
Tulossa
26. päivästä klo 20 UTC - 26. päivään klo 22 UTC
Tuuli 5 kn eri suunnista
Todennäköisyys 30%
27. päivästä klo 03 UTC - 27. päivään klo 07 UTC
Näkyvyys: 0800 m
200 ft:n korkeudessa
sumua
Tulossa
27. päivästä klo 10 UTC - 27. päivään klo 12 UTC
Tuuli 12 kn etelästä/lounaasta

TAF: ENRY 2618/2718 20010KT CAVOK BECMG 2620/2622 VRB05KT PROB30 2703/2707 0800 FG VV002 BECMG 2710/2712 20012KT

Säähavainnot ja -ennusteet yli 4000 lentoasemalta (METAR- ja TAF-raportit).

Käytössä olevat sääasemat on merkitty karttaan keltaisilla ja punaisilla pisteillä.

Aseta hiiri pisteen päälle nähdäksesi sääaseman nimen.

Klikkaa sitten nähdäksesi säähavainnot ja -ennusteet.

Kartan vaihtaminen: klikkaa mustalla rastilla varustettuja vihreitä pisteitä, niin voit zoomata sisään; viivalla varustettua vihreää pistettä, niin voit zoomata ulos tai vihreitä nuolia, niin pääset viereisille kartoille.


METAR-TAF: